Fleet — CFG7532 — position and weather

sailwx.info

Track history (hours):
 
Tides and Currents Weather Stations Pressure Air Temp Water Temp Dewpoint Dewpoint Depression Visibility Wind Speed Wind Dir Waves Ship Positions

Fleet

Last reported at 2017-Sep-24 22:10 UTC. Time now 2017-Oct-18 02:36 UTC.
Position N 48°39' W 123°24'.
Warning: this ship's position is 23 days out of date.

Length 21 m; draft 2.3 m.

Type: Pleasure craft. MMSI: 316010598.

Date/timePositionNaut miles runAvg speedWind from/ knotsBaromVisibWave heightAir tempDewpointWater temp
2017-Sep-24 22:10N 48°39' W 123°24'0 1.1
2017-Sep-24 22:00N 48°39' W 123°23'3 6.4
2017-Sep-24 21:30N 48°42' W 123°26'3 5.6
2017-Sep-24 21:00N 48°41' W 123°30'3 6.9
2017-Sep-24 20:30N 48°38' W 123°30'4 6.8
2017-Sep-24 19:59N 48°34' W 123°31'1 1.7
2017-Sep-24 19:30N 48°35' W 123°30'1 0.0
2017-Sep-23 22:08N 48°34' W 123°28'1 7.9
2017-Sep-23 22:00N 48°35' W 123°29'4 8.7
2017-Sep-23 21:30N 48°40' W 123°29'3 6.5
2017-Sep-23 21:00N 48°42' W 123°26'  
2017-Sep-17 19:27N 48°39' W 123°24'2 4.5
2017-Sep-17 19:01N 48°40' W 123°21'4 8.2
2017-Sep-17 18:30N 48°44' W 123°21'4 7.8
2017-Sep-17 18:00N 48°48' W 123°23'4 7.9
2017-Sep-17 17:30N 48°50' W 123°28'2 3.1
2017-Sep-17 17:00N 48°51' W 123°30'0 0.0
2017-Sep-17 16:30N 48°51' W 123°30'0 0.0
2017-Sep-17 16:00N 48°51' W 123°30'0 0.0
2017-Sep-17 15:30N 48°51' W 123°30'0 0.0
2017-Sep-17 15:00N 48°51' W 123°30'0 0.0
2017-Sep-17 14:30N 48°51' W 123°30'0 0.0
2017-Sep-17 14:00N 48°51' W 123°30'0 0.0
2017-Sep-17 13:30N 48°51' W 123°30'0 0.0
2017-Sep-17 13:00N 48°51' W 123°30'0 0.0
2017-Sep-17 12:30N 48°51' W 123°30'0 0.0
2017-Sep-17 12:00N 48°51' W 123°30'0 0.0
2017-Sep-17 11:30N 48°51' W 123°30'0 0.0
2017-Sep-17 11:00N 48°51' W 123°30'0 0.0
2017-Sep-17 10:30N 48°51' W 123°30'0 0.0
2017-Sep-17 10:00N 48°51' W 123°30'0 0.0
2017-Sep-17 09:30N 48°51' W 123°30'0 0.0
2017-Sep-17 09:00N 48°51' W 123°30'0 0.0
2017-Sep-17 08:30N 48°51' W 123°30'0 0.0
2017-Sep-17 08:00N 48°51' W 123°30'0 0.0
2017-Sep-17 07:30N 48°51' W 123°30'0 0.0
2017-Sep-17 07:00N 48°51' W 123°30'0 0.0
2017-Sep-17 06:30N 48°51' W 123°30'0 0.0
2017-Sep-17 06:00N 48°51' W 123°30'0 0.0
2017-Sep-17 05:30N 48°51' W 123°30'0 0.0
2017-Sep-17 05:00N 48°51' W 123°30'0 0.0
2017-Sep-17 04:30N 48°51' W 123°30'0 0.0
2017-Sep-17 04:00N 48°51' W 123°30'0 0.0
2017-Sep-17 03:30N 48°51' W 123°30'0 0.0
2017-Sep-17 03:00N 48°51' W 123°30'0 0.0
2017-Sep-17 02:30N 48°51' W 123°30'0 0.0
2017-Sep-17 02:00N 48°51' W 123°30'0 0.0
2017-Sep-17 01:30N 48°51' W 123°30'0 0.0
2017-Sep-17 01:00N 48°51' W 123°30'0 0.0
2017-Sep-17 00:30N 48°51' W 123°30'0 0.0
2017-Sep-16 23:59N 48°51' W 123°30'0 0.0
2017-Sep-16 23:30N 48°51' W 123°30'0 0.0
2017-Sep-16 23:00N 48°51' W 123°30'0 0.0
2017-Sep-16 22:30N 48°51' W 123°30'0 0.0
2017-Sep-16 22:00N 48°51' W 123°30'0 0.0
2017-Sep-16 21:30N 48°51' W 123°30'0 0.0
2017-Sep-16 21:00N 48°51' W 123°30'0 0.0
2017-Sep-16 20:30N 48°51' W 123°30'0 0.0
2017-Sep-16 20:00N 48°51' W 123°30'0 0.0
2017-Sep-16 19:30N 48°51' W 123°30'0 0.0
2017-Sep-16 19:00N 48°51' W 123°30'0 0.0
2017-Sep-16 18:30N 48°51' W 123°30'0 0.0
2017-Sep-16 18:00N 48°51' W 123°30'0 0.0
2017-Sep-16 17:30N 48°51' W 123°30'0 0.0
2017-Sep-16 17:00N 48°51' W 123°30'0 0.0
2017-Sep-16 16:30N 48°51' W 123°30'0 0.0
2017-Sep-16 16:00N 48°51' W 123°30'0 0.0
2017-Sep-16 15:30N 48°51' W 123°30'0 0.0
2017-Sep-16 15:00N 48°51' W 123°30'0 0.0
2017-Sep-16 14:30N 48°51' W 123°30'0 0.0
2017-Sep-16 14:00N 48°51' W 123°30'0 0.0
2017-Sep-16 13:30N 48°51' W 123°30'0 0.0
2017-Sep-16 13:00N 48°51' W 123°30'0 0.0
2017-Sep-16 12:30N 48°51' W 123°30'0 0.0
2017-Sep-16 12:00N 48°51' W 123°30'0 0.0
2017-Sep-16 11:30N 48°51' W 123°30'0 0.0
2017-Sep-16 11:00N 48°51' W 123°30'0 0.0
2017-Sep-16 10:30N 48°51' W 123°30'0 0.0
2017-Sep-16 10:00N 48°51' W 123°30'0 0.0
2017-Sep-16 09:30N 48°51' W 123°30'0 0.0
2017-Sep-16 09:00N 48°51' W 123°30'0 0.0
2017-Sep-16 08:30N 48°51' W 123°30'0 0.0
2017-Sep-16 08:00N 48°51' W 123°30'0 0.0
2017-Sep-16 07:30N 48°51' W 123°30'0 0.0
2017-Sep-16 07:00N 48°51' W 123°30'0 0.0
2017-Sep-16 06:30N 48°51' W 123°30'0 0.0
2017-Sep-16 06:00N 48°51' W 123°30'0 0.0
2017-Sep-16 05:30N 48°51' W 123°30'0 0.0
2017-Sep-16 05:00N 48°51' W 123°30'0 0.0
2017-Sep-16 04:30N 48°51' W 123°30'0 0.0
2017-Sep-16 04:00N 48°51' W 123°30'0 0.0
2017-Sep-16 03:30N 48°51' W 123°30'0 0.0
2017-Sep-16 03:00N 48°51' W 123°30'0 0.0
2017-Sep-16 02:30N 48°51' W 123°30'0 0.0
2017-Sep-16 02:00N 48°51' W 123°30'0 0.0
2017-Sep-16 01:30N 48°51' W 123°30'0 0.0
2017-Sep-16 01:00N 48°51' W 123°30'0 0.0
2017-Sep-16 00:30N 48°51' W 123°30'0 0.0
2017-Sep-16 00:00N 48°51' W 123°30'0 0.0
2017-Sep-15 23:30N 48°51' W 123°30'0 0.0
2017-Sep-15 23:00N 48°51' W 123°30'0 0.0
2017-Sep-15 22:30N 48°51' W 123°30'0 0.0
2017-Sep-15 22:00N 48°51' W 123°30'0 0.1
2017-Sep-15 21:30N 48°51' W 123°30'3 6.1
2017-Sep-15 21:00N 48°50' W 123°26'4 8.6
2017-Sep-15 20:31N 48°46' W 123°22'4 8.2
2017-Sep-15 20:00N 48°43' W 123°26'4 7.5
2017-Sep-15 19:30N 48°41' W 123°30'4 8.5
2017-Sep-15 19:00N 48°36' W 123°29'3 5.3
2017-Sep-15 18:29N 48°34' W 123°28'0 0.0
2017-Sep-15 17:46N 48°34' W 123°28'0 0.0
2017-Sep-15 17:30N 48°34' W 123°28'0 0.0
2017-Sep-15 16:26N 48°34' W 123°28'0 0.0
2017-Sep-15 15:52N 48°34' W 123°28'0 0.0
2017-Sep-15 15:21N 48°34' W 123°28'0 0.0
2017-Sep-15 15:00N 48°34' W 123°28'0 0.0
2017-Sep-15 14:28N 48°34' W 123°28'0 0.0
2017-Sep-15 13:50N 48°34' W 123°28'0 0.0
2017-Sep-15 13:28N 48°34' W 123°28'0 0.0
2017-Sep-15 12:27N 48°34' W 123°28'0 0.0
2017-Sep-15 11:54N 48°34' W 123°28'0 0.1
2017-Sep-15 11:09N 48°34' W 123°28'0 0.0
2017-Sep-15 10:12N 48°34' W 123°28'0 0.0
2017-Sep-15 10:00N 48°34' W 123°28'0 0.1
2017-Sep-15 09:29N 48°34' W 123°28'0 0.1
2017-Sep-15 08:49N 48°34' W 123°28'0 0.1
2017-Sep-15 08:23N 48°34' W 123°28'0 0.1
2017-Sep-15 07:52N 48°34' W 123°28'0 0.0
2017-Sep-15 07:30N 48°34' W 123°28'0 0.0
2017-Sep-15 06:51N 48°34' W 123°28'0 0.0
2017-Sep-15 06:29N 48°34' W 123°28'0 0.0
2017-Sep-15 05:38N 48°34' W 123°28'0 0.0
2017-Sep-15 05:07N 48°34' W 123°28'0 0.0
2017-Sep-15 04:46N 48°34' W 123°28'0 0.0
2017-Sep-15 04:27N 48°34' W 123°28'0 0.0
2017-Sep-15 04:00N 48°34' W 123°28'0 0.0
2017-Sep-15 03:27N 48°34' W 123°28'0 0.0
2017-Sep-15 03:00N 48°34' W 123°28'0 0.0
2017-Sep-15 02:29N 48°34' W 123°28'0 0.0
2017-Sep-15 02:00N 48°34' W 123°28'0 0.0
2017-Sep-15 01:29N 48°34' W 123°28'0 0.0
2017-Sep-15 01:00N 48°34' W 123°28'0 0.0
2017-Sep-15 00:30N 48°34' W 123°28'0 0.0
2017-Sep-15 00:00N 48°34' W 123°28'0 0.0
2017-Sep-14 23:13N 48°34' W 123°28'0 0.0
2017-Sep-14 23:00N 48°34' W 123°28'  
Track history (hours):
 
Tides and Currents Weather Stations Pressure Air Temp Water Temp Dewpoint Dewpoint Depression Visibility Wind Speed Wind Dir Waves Ship Positions

Fleet

Last reported at 2017-Sep-24 22:10 UTC. Time now 2017-Oct-18 02:36 UTC.
Position N 48°39' W 123°24'.
Warning: this ship's position is 23 days out of date.

Length 21 m; draft 2.3 m.

Type: Pleasure craft. MMSI: 316010598.

Date/timePositionNaut miles runAvg speedWind from/ knotsBaromVisibWave heightAir tempDewpointWater temp
2017-Sep-24 22:10N 48°39' W 123°24'0 1.1
2017-Sep-24 22:00N 48°39' W 123°23'3 6.4
2017-Sep-24 21:30N 48°42' W 123°26'3 5.6
2017-Sep-24 21:00N 48°41' W 123°30'3 6.9
2017-Sep-24 20:30N 48°38' W 123°30'4 6.8
2017-Sep-24 19:59N 48°34' W 123°31'1 1.7
2017-Sep-24 19:30N 48°35' W 123°30'1 0.0
2017-Sep-23 22:08N 48°34' W 123°28'1 7.9
2017-Sep-23 22:00N 48°35' W 123°29'4 8.7
2017-Sep-23 21:30N 48°40' W 123°29'3 6.5
2017-Sep-23 21:00N 48°42' W 123°26'  
2017-Sep-17 19:27N 48°39' W 123°24'2 4.5
2017-Sep-17 19:01N 48°40' W 123°21'4 8.2
2017-Sep-17 18:30N 48°44' W 123°21'4 7.8
2017-Sep-17 18:00N 48°48' W 123°23'4 7.9
2017-Sep-17 17:30N 48°50' W 123°28'2 3.1
2017-Sep-17 17:00N 48°51' W 123°30'0 0.0
2017-Sep-17 16:30N 48°51' W 123°30'0 0.0
2017-Sep-17 16:00N 48°51' W 123°30'0 0.0
2017-Sep-17 15:30N 48°51' W 123°30'0 0.0
2017-Sep-17 15:00N 48°51' W 123°30'0 0.0
2017-Sep-17 14:30N 48°51' W 123°30'0 0.0
2017-Sep-17 14:00N 48°51' W 123°30'0 0.0
2017-Sep-17 13:30N 48°51' W 123°30'0 0.0
2017-Sep-17 13:00N 48°51' W 123°30'0 0.0
2017-Sep-17 12:30N 48°51' W 123°30'0 0.0
2017-Sep-17 12:00N 48°51' W 123°30'0 0.0
2017-Sep-17 11:30N 48°51' W 123°30'0 0.0
2017-Sep-17 11:00N 48°51' W 123°30'0 0.0
2017-Sep-17 10:30N 48°51' W 123°30'0 0.0
2017-Sep-17 10:00N 48°51' W 123°30'0 0.0
2017-Sep-17 09:30N 48°51' W 123°30'0 0.0
2017-Sep-17 09:00N 48°51' W 123°30'0 0.0
2017-Sep-17 08:30N 48°51' W 123°30'0 0.0
2017-Sep-17 08:00N 48°51' W 123°30'0 0.0
2017-Sep-17 07:30N 48°51' W 123°30'0 0.0
2017-Sep-17 07:00N 48°51' W 123°30'0 0.0
2017-Sep-17 06:30N 48°51' W 123°30'0 0.0
2017-Sep-17 06:00N 48°51' W 123°30'0 0.0
2017-Sep-17 05:30N 48°51' W 123°30'0 0.0
2017-Sep-17 05:00N 48°51' W 123°30'0 0.0
2017-Sep-17 04:30N 48°51' W 123°30'0 0.0
2017-Sep-17 04:00N 48°51' W 123°30'0 0.0
2017-Sep-17 03:30N 48°51' W 123°30'0 0.0
2017-Sep-17 03:00N 48°51' W 123°30'0 0.0
2017-Sep-17 02:30N 48°51' W 123°30'0 0.0
2017-Sep-17 02:00N 48°51' W 123°30'0 0.0
2017-Sep-17 01:30N 48°51' W 123°30'0 0.0
2017-Sep-17 01:00N 48°51' W 123°30'0 0.0
2017-Sep-17 00:30N 48°51' W 123°30'0 0.0
2017-Sep-16 23:59N 48°51' W 123°30'0 0.0
2017-Sep-16 23:30N 48°51' W 123°30'0 0.0
2017-Sep-16 23:00N 48°51' W 123°30'0 0.0
2017-Sep-16 22:30N 48°51' W 123°30'0 0.0
2017-Sep-16 22:00N 48°51' W 123°30'0 0.0
2017-Sep-16 21:30N 48°51' W 123°30'0 0.0
2017-Sep-16 21:00N 48°51' W 123°30'0 0.0
2017-Sep-16 20:30N 48°51' W 123°30'0 0.0
2017-Sep-16 20:00N 48°51' W 123°30'0 0.0
2017-Sep-16 19:30N 48°51' W 123°30'0 0.0
2017-Sep-16 19:00N 48°51' W 123°30'0 0.0
2017-Sep-16 18:30N 48°51' W 123°30'0 0.0
2017-Sep-16 18:00N 48°51' W 123°30'0 0.0
2017-Sep-16 17:30N 48°51' W 123°30'0 0.0
2017-Sep-16 17:00N 48°51' W 123°30'0 0.0
2017-Sep-16 16:30N 48°51' W 123°30'0 0.0
2017-Sep-16 16:00N 48°51' W 123°30'0 0.0
2017-Sep-16 15:30N 48°51' W 123°30'0 0.0
2017-Sep-16 15:00N 48°51' W 123°30'0 0.0
2017-Sep-16 14:30N 48°51' W 123°30'0 0.0
2017-Sep-16 14:00N 48°51' W 123°30'0 0.0
2017-Sep-16 13:30N 48°51' W 123°30'0 0.0
2017-Sep-16 13:00N 48°51' W 123°30'0 0.0
2017-Sep-16 12:30N 48°51' W 123°30'0 0.0
2017-Sep-16 12:00N 48°51' W 123°30'0 0.0
2017-Sep-16 11:30N 48°51' W 123°30'0 0.0
2017-Sep-16 11:00N 48°51' W 123°30'0 0.0
2017-Sep-16 10:30N 48°51' W 123°30'0 0.0
2017-Sep-16 10:00N 48°51' W 123°30'0 0.0
2017-Sep-16 09:30N 48°51' W 123°30'0 0.0
2017-Sep-16 09:00N 48°51' W 123°30'0 0.0
2017-Sep-16 08:30N 48°51' W 123°30'0 0.0
2017-Sep-16 08:00N 48°51' W 123°30'0 0.0
2017-Sep-16 07:30N 48°51' W 123°30'0 0.0
2017-Sep-16 07:00N 48°51' W 123°30'0 0.0
2017-Sep-16 06:30N 48°51' W 123°30'0 0.0
2017-Sep-16 06:00N 48°51' W 123°30'0 0.0
2017-Sep-16 05:30N 48°51' W 123°30'0 0.0
2017-Sep-16 05:00N 48°51' W 123°30'0 0.0
2017-Sep-16 04:30N 48°51' W 123°30'0 0.0
2017-Sep-16 04:00N 48°51' W 123°30'0 0.0
2017-Sep-16 03:30N 48°51' W 123°30'0 0.0
2017-Sep-16 03:00N 48°51' W 123°30'0 0.0
2017-Sep-16 02:30N 48°51' W 123°30'0 0.0
2017-Sep-16 02:00N 48°51' W 123°30'0 0.0
2017-Sep-16 01:30N 48°51' W 123°30'0 0.0
2017-Sep-16 01:00N 48°51' W 123°30'0 0.0
2017-Sep-16 00:30N 48°51' W 123°30'0 0.0
2017-Sep-16 00:00N 48°51' W 123°30'0 0.0
2017-Sep-15 23:30N 48°51' W 123°30'0 0.0
2017-Sep-15 23:00N 48°51' W 123°30'0 0.0
2017-Sep-15 22:30N 48°51' W 123°30'0 0.0
2017-Sep-15 22:00N 48°51' W 123°30'0 0.1
2017-Sep-15 21:30N 48°51' W 123°30'3 6.1
2017-Sep-15 21:00N 48°50' W 123°26'4 8.6
2017-Sep-15 20:31N 48°46' W 123°22'4 8.2
2017-Sep-15 20:00N 48°43' W 123°26'4 7.5
2017-Sep-15 19:30N 48°41' W 123°30'4 8.5
2017-Sep-15 19:00N 48°36' W 123°29'3 5.3
2017-Sep-15 18:29N 48°34' W 123°28'0 0.0
2017-Sep-15 17:46N 48°34' W 123°28'0 0.0
2017-Sep-15 17:30N 48°34' W 123°28'0 0.0
2017-Sep-15 16:26N 48°34' W 123°28'0 0.0
2017-Sep-15 15:52N 48°34' W 123°28'0 0.0
2017-Sep-15 15:21N 48°34' W 123°28'0 0.0
2017-Sep-15 15:00N 48°34' W 123°28'0 0.0
2017-Sep-15 14:28N 48°34' W 123°28'0 0.0
2017-Sep-15 13:50N 48°34' W 123°28'0 0.0
2017-Sep-15 13:28N 48°34' W 123°28'0 0.0
2017-Sep-15 12:27N 48°34' W 123°28'0 0.0
2017-Sep-15 11:54N 48°34' W 123°28'0 0.1
2017-Sep-15 11:09N 48°34' W 123°28'0 0.0
2017-Sep-15 10:12N 48°34' W 123°28'0 0.0
2017-Sep-15 10:00N 48°34' W 123°28'0 0.1
2017-Sep-15 09:29N 48°34' W 123°28'0 0.1
2017-Sep-15 08:49N 48°34' W 123°28'0 0.1
2017-Sep-15 08:23N 48°34' W 123°28'0 0.1
2017-Sep-15 07:52N 48°34' W 123°28'0 0.0
2017-Sep-15 07:30N 48°34' W 123°28'0 0.0
2017-Sep-15 06:51N 48°34' W 123°28'0 0.0
2017-Sep-15 06:29N 48°34' W 123°28'0 0.0
2017-Sep-15 05:38N 48°34' W 123°28'0 0.0
2017-Sep-15 05:07N 48°34' W 123°28'0 0.0
2017-Sep-15 04:46N 48°34' W 123°28'0 0.0
2017-Sep-15 04:27N 48°34' W 123°28'0 0.0
2017-Sep-15 04:00N 48°34' W 123°28'0 0.0
2017-Sep-15 03:27N 48°34' W 123°28'0 0.0
2017-Sep-15 03:00N 48°34' W 123°28'0 0.0
2017-Sep-15 02:29N 48°34' W 123°28'0 0.0
2017-Sep-15 02:00N 48°34' W 123°28'0 0.0
2017-Sep-15 01:29N 48°34' W 123°28'0 0.0
2017-Sep-15 01:00N 48°34' W 123°28'0 0.0
2017-Sep-15 00:30N 48°34' W 123°28'0 0.0
2017-Sep-15 00:00N 48°34' W 123°28'0 0.0
2017-Sep-14 23:13N 48°34' W 123°28'0 0.0
2017-Sep-14 23:00N 48°34' W 123°28'  

Dump ship's entire track history